sensor_id;sensor_type;location;lat;lon;timestamp;P1;durP1;ratioP1;P2;durP2;ratioP2
15500;SDS011;7852;52.228;5.990;2023-06-22T00:03:31;7;;;6.1;;
15500;SDS011;7852;52.228;5.990;2023-06-22T00:03:31;7.5;;;6.2;;
15500;SDS011;7852;52.228;5.990;2023-06-22T00:03:31;7.4;;;6;;
15500;SDS011;7852;52.228;5.990;2023-06-22T00:04:27;8.9;;;6.7;;
15500;SDS011;7852;52.228;5.990;2023-06-22T00:05:27;7;;;6;;
15500;SDS011;7852;52.228;5.990;2023-06-22T00:06:27;7.1;;;5.8;;
15500;SDS011;7852;52.228;5.990;2023-06-22T00:07:27;6.7;;;5.7;;
15500;SDS011;7852;52.228;5.990;2023-06-22T00:08:27;8.6;;;6;;
15500;SDS011;7852;52.228;5.990;2023-06-22T00:09:27;8.8;;;6.4;;
15500;SDS011;7852;52.228;5.990;2023-06-22T00:10:27;6.4;;;5.6;;
15500;SDS011;7852;52.228;5.990;2023-06-22T00:11:27;6.9;;;6.2;;
15500;SDS011;7852;52.228;5.990;2023-06-22T00:12:27;8.8;;;5.8;;
15500;SDS011;7852;52.228;5.990;2023-06-22T00:13:27;8;;;5.8;;
15500;SDS011;7852;52.228;5.990;2023-06-22T00:14:27;7.7;;;6.1;;
15500;SDS011;7852;52.228;5.990;2023-06-22T00:15:27;6;;;5.4;;
15500;SDS011;7852;52.228;5.990;2023-06-22T00:16:27;6.8;;;5.3;;
15500;SDS011;7852;52.228;5.990;2023-06-22T00:17:27;6.4;;;5.1;;
15500;SDS011;7852;52.228;5.990;2023-06-22T00:18:27;4.8;;;4.3;;
15500;SDS011;7852;52.228;5.990;2023-06-22T00:19:27;5.9;;;5.2;;
15500;SDS011;7852;52.228;5.990;2023-06-22T00:20:27;5.6;;;4.4;;
15500;SDS011;7852;52.228;5.990;2023-06-22T00:21:27;6.3;;;5.5;;
15500;SDS011;7852;52.228;5.990;2023-06-22T00:22:27;6.3;;;5.7;;
15500;SDS011;7852;52.228;5.990;2023-06-22T00:23:27;6.3;;;5.7;;
15500;SDS011;7852;52.228;5.990;2023-06-22T00:24:27;7.1;;;5.6;;
15500;SDS011;7852;52.228;5.990;2023-06-22T00:25:27;7;;;5.8;;
15500;SDS011;7852;52.228;5.990;2023-06-22T00:26:27;6.2;;;5.6;;
15500;SDS011;7852;52.228;5.990;2023-06-22T00:27:27;10;;;7.1;;
15500;SDS011;7852;52.228;5.990;2023-06-22T00:28:27;9;;;7.6;;
15500;SDS011;7852;52.228;5.990;2023-06-22T00:29:27;8.1;;;7.3;;
15500;SDS011;7852;52.228;5.990;2023-06-22T00:30:27;6.9;;;6.2;;
15500;SDS011;7852;52.228;5.990;2023-06-22T00:31:27;10.5;;;6.5;;
15500;SDS011;7852;52.228;5.990;2023-06-22T00:32:27;7.9;;;6.7;;
15500;SDS011;7852;52.228;5.990;2023-06-22T00:33:27;8.7;;;6.7;;
15500;SDS011;7852;52.228;5.990;2023-06-22T00:34:27;8;;;7.1;;
15500;SDS011;7852;52.228;5.990;2023-06-22T00:35:27;8.8;;;7.4;;
15500;SDS011;7852;52.228;5.990;2023-06-22T00:36:27;8.1;;;7.3;;
15500;SDS011;7852;52.228;5.990;2023-06-22T00:37:27;10.2;;;8;;
15500;SDS011;7852;52.228;5.990;2023-06-22T00:38:27;9.4;;;7.9;;
15500;SDS011;7852;52.228;5.990;2023-06-22T00:39:27;9.6;;;7.8;;
15500;SDS011;7852;52.228;5.990;2023-06-22T00:40:27;10.8;;;7.8;;
15500;SDS011;7852;52.228;5.990;2023-06-22T00:41:27;8.9;;;7.8;;
15500;SDS011;7852;52.228;5.990;2023-06-22T00:42:27;9.2;;;7.7;;
15500;SDS011;7852;52.228;5.990;2023-06-22T00:43:27;9.3;;;7.8;;
15500;SDS011;7852;52.228;5.990;2023-06-22T00:44:27;10.8;;;7.9;;
15500;SDS011;7852;52.228;5.990;2023-06-22T00:45:27;9;;;8.1;;
15500;SDS011;7852;52.228;5.990;2023-06-22T00:46:27;9.3;;;8.1;;
15500;SDS011;7852;52.228;5.990;2023-06-22T00:47:27;10.4;;;8;;
15500;SDS011;7852;52.228;5.990;2023-06-22T00:48:27;8.4;;;6.8;;
15500;SDS011;7852;52.228;5.990;2023-06-22T00:49:27;8.7;;;7.5;;
15500;SDS011;7852;52.228;5.990;2023-06-22T00:50:28;8.7;;;7.4;;
15500;SDS011;7852;52.228;5.990;2023-06-22T00:51:27;11.3;;;7.9;;
15500;SDS011;7852;52.228;5.990;2023-06-22T00:52:27;10.4;;;7.1;;
15500;SDS011;7852;52.228;5.990;2023-06-22T00:53:27;9.4;;;7.6;;
15500;SDS011;7852;52.228;5.990;2023-06-22T00:54:27;11.3;;;7.7;;
15500;SDS011;7852;52.228;5.990;2023-06-22T00:55:27;12;;;8.6;;
15500;SDS011;7852;52.228;5.990;2023-06-22T00:56:27;8.4;;;7.5;;
15500;SDS011;7852;52.228;5.990;2023-06-22T00:57:27;11.6;;;8;;
15500;SDS011;7852;52.228;5.990;2023-06-22T00:58:27;11.2;;;7.8;;
15500;SDS011;7852;52.228;5.990;2023-06-22T00:59:27;9.6;;;8;;
15500;SDS011;7852;52.228;5.990;2023-06-22T01:00:27;8.8;;;6.9;;
15500;SDS011;7852;52.228;5.990;2023-06-22T01:01:27;9.6;;;7.5;;
15500;SDS011;7852;52.228;5.990;2023-06-22T01:02:27;9.5;;;7.5;;
15500;SDS011;7852;52.228;5.990;2023-06-22T01:03:27;8.3;;;6.5;;
15500;SDS011;7852;52.228;5.990;2023-06-22T01:04:33;8;;;6.5;;
15500;SDS011;7852;52.228;5.990;2023-06-22T01:05:27;7.8;;;6.6;;
15500;SDS011;7852;52.228;5.990;2023-06-22T01:06:29;9.9;;;6.7;;
15500;SDS011;7852;52.228;5.990;2023-06-22T01:07:29;13;;;5.9;;
15500;SDS011;7852;52.228;5.990;2023-06-22T01:08:29;9.2;;;6.3;;
15500;SDS011;7852;52.228;5.990;2023-06-22T01:09:28;7.3;;;6;;
15500;SDS011;7852;52.228;5.990;2023-06-22T01:10:29;9.8;;;6.9;;
15500;SDS011;7852;52.228;5.990;2023-06-22T01:11:28;7.2;;;6;;
15500;SDS011;7852;52.228;5.990;2023-06-22T01:12:28;7.8;;;6.3;;
15500;SDS011;7852;52.228;5.990;2023-06-22T01:13:29;8;;;6.4;;
15500;SDS011;7852;52.228;5.990;2023-06-22T01:14:28;7.6;;;6.1;;
15500;SDS011;7852;52.228;5.990;2023-06-22T01:15:28;7.1;;;6.2;;
15500;SDS011;7852;52.228;5.990;2023-06-22T01:16:29;7.2;;;4.9;;
15500;SDS011;7852;52.228;5.990;2023-06-22T01:17:27;7.8;;;6.5;;
15500;SDS011;7852;52.228;5.990;2023-06-22T01:18:28;9.2;;;6.6;;
15500;SDS011;7852;52.228;5.990;2023-06-22T01:19:31;6.6;;;5.9;;
15500;SDS011;7852;52.228;5.990;2023-06-22T01:20:27;9.3;;;7.6;;
15500;SDS011;7852;52.228;5.990;2023-06-22T01:21:28;9.2;;;7;;
15500;SDS011;7852;52.228;5.990;2023-06-22T01:22:31;9.2;;;7.2;;
15500;SDS011;7852;52.228;5.990;2023-06-22T01:23:29;11.7;;;6.9;;
15500;SDS011;7852;52.228;5.990;2023-06-22T01:24:30;9.3;;;8.3;;
15500;SDS011;7852;52.228;5.990;2023-06-22T01:25:28;11;;;6.7;;
15500;SDS011;7852;52.228;5.990;2023-06-22T01:26:28;9.8;;;6.5;;
15500;SDS011;7852;52.228;5.990;2023-06-22T01:27:32;9.7;;;7.3;;
15500;SDS011;7852;52.228;5.990;2023-06-22T01:28:36;7.8;;;7;;
15500;SDS011;7852;52.228;5.990;2023-06-22T01:29:27;8.3;;;7.2;;
15500;SDS011;7852;52.228;5.990;2023-06-22T01:30:27;8.8;;;6.8;;
15500;SDS011;7852;52.228;5.990;2023-06-22T01:31:27;9;;;8.1;;
15500;SDS011;7852;52.228;5.990;2023-06-22T01:32:28;9.6;;;8.3;;
15500;SDS011;7852;52.228;5.990;2023-06-22T01:33:27;9.9;;;7.2;;
15500;SDS011;7852;52.228;5.990;2023-06-22T01:34:27;7.3;;;6.3;;
15500;SDS011;7852;52.228;5.990;2023-06-22T01:35:27;7.4;;;6.6;;
15500;SDS011;7852;52.228;5.990;2023-06-22T01:36:27;10.5;;;6.8;;
15500;SDS011;7852;52.228;5.990;2023-06-22T01:37:28;8.5;;;6.4;;
15500;SDS011;7852;52.228;5.990;2023-06-22T01:38:27;8.7;;;7.1;;
15500;SDS011;7852;52.228;5.990;2023-06-22T01:39:27;7.6;;;6.2;;
15500;SDS011;7852;52.228;5.990;2023-06-22T01:40:27;7.4;;;6.6;;
15500;SDS011;7852;52.228;5.990;2023-06-22T01:41:28;180.2;;;76.3;;
15500;SDS011;7852;52.228;5.990;2023-06-22T01:42:27;8.2;;;5.8;;
15500;SDS011;7852;52.228;5.990;2023-06-22T01:43:27;9;;;5.9;;
15500;SDS011;7852;52.228;5.990;2023-06-22T01:44:27;6.9;;;5.6;;
15500;SDS011;7852;52.228;5.990;2023-06-22T01:45:28;8.2;;;5.5;;
15500;SDS011;7852;52.228;5.990;2023-06-22T01:46:27;8.4;;;6.3;;
15500;SDS011;7852;52.228;5.990;2023-06-22T01:47:27;10.7;;;6.6;;
15500;SDS011;7852;52.228;5.990;2023-06-22T01:48:27;7.1;;;6.1;;
15500;SDS011;7852;52.228;5.990;2023-06-22T01:49:27;11.3;;;7.1;;
15500;SDS011;7852;52.228;5.990;2023-06-22T01:50:27;100.2;;;84.9;;
15500;SDS011;7852;52.228;5.990;2023-06-22T01:51:27;222.8;;;199.1;;
15500;SDS011;7852;52.228;5.990;2023-06-22T01:52:27;11;;;7.6;;
15500;SDS011;7852;52.228;5.990;2023-06-22T01:53:27;267;;;239.9;;
15500;SDS011;7852;52.228;5.990;2023-06-22T01:54:27;316;;;186.3;;
15500;SDS011;7852;52.228;5.990;2023-06-22T01:55:27;10.4;;;8.5;;
15500;SDS011;7852;52.228;5.990;2023-06-22T01:56:27;11.8;;;9.4;;
15500;SDS011;7852;52.228;5.990;2023-06-22T01:57:27;85.8;;;78.9;;
15500;SDS011;7852;52.228;5.990;2023-06-22T01:58:28;102.4;;;57.1;;
15500;SDS011;7852;52.228;5.990;2023-06-22T01:59:28;305.3;;;280.8;;
15500;SDS011;7852;52.228;5.990;2023-06-22T02:00:28;9.2;;;6.8;;
15500;SDS011;7852;52.228;5.990;2023-06-22T02:01:29;13.3;;;8.7;;
15500;SDS011;7852;52.228;5.990;2023-06-22T02:02:28;11.9;;;7.4;;
15500;SDS011;7852;52.228;5.990;2023-06-22T02:03:30;11.5;;;6.8;;
15500;SDS011;7852;52.228;5.990;2023-06-22T02:04:29;8.7;;;7;;
15500;SDS011;7852;52.228;5.990;2023-06-22T02:05:29;7.7;;;6.3;;
15500;SDS011;7852;52.228;5.990;2023-06-22T02:06:30;6.8;;;5.3;;
15500;SDS011;7852;52.228;5.990;2023-06-22T02:07:28;22.6;;;6.8;;
15500;SDS011;7852;52.228;5.990;2023-06-22T02:08:28;285.1;;;74;;
15500;SDS011;7852;52.228;5.990;2023-06-22T02:09:29;9.9;;;5.3;;
15500;SDS011;7852;52.228;5.990;2023-06-22T02:10:27;6.9;;;5.6;;
15500;SDS011;7852;52.228;5.990;2023-06-22T02:11:29;6;;;4.6;;
15500;SDS011;7852;52.228;5.990;2023-06-22T02:12:27;7;;;5.2;;
15500;SDS011;7852;52.228;5.990;2023-06-22T02:13:27;8.3;;;5.3;;
15500;SDS011;7852;52.228;5.990;2023-06-22T02:14:27;132.3;;;31.5;;
15500;SDS011;7852;52.228;5.990;2023-06-22T02:15:27;291.7;;;32.7;;
15500;SDS011;7852;52.228;5.990;2023-06-22T02:16:27;1558;;;769.9;;
15500;SDS011;7852;52.228;5.990;2023-06-22T02:17:27;1104.2;;;518.1;;
15500;SDS011;7852;52.228;5.990;2023-06-22T02:18:27;71.5;;;59.2;;
15500;SDS011;7852;52.228;5.990;2023-06-22T02:19:27;36.8;;;15.6;;
15500;SDS011;7852;52.228;5.990;2023-06-22T02:20:27;9.2;;;6.3;;
15500;SDS011;7852;52.228;5.990;2023-06-22T02:21:27;47.2;;;9.6;;
15500;SDS011;7852;52.228;5.990;2023-06-22T02:22:27;10.5;;;6.2;;
15500;SDS011;7852;52.228;5.990;2023-06-22T02:23:27;46.2;;;42.1;;
15500;SDS011;7852;52.228;5.990;2023-06-22T02:24:27;18.9;;;17.5;;
15500;SDS011;7852;52.228;5.990;2023-06-22T02:25:27;207;;;157.4;;
15500;SDS011;7852;52.228;5.990;2023-06-22T02:26:27;51.2;;;47.9;;
15500;SDS011;7852;52.228;5.990;2023-06-22T02:27:27;9.1;;;6.4;;
15500;SDS011;7852;52.228;5.990;2023-06-22T02:28:27;243;;;46;;
15500;SDS011;7852;52.228;5.990;2023-06-22T02:29:27;9.8;;;6.8;;
15500;SDS011;7852;52.228;5.990;2023-06-22T02:30:27;25;;;17;;
15500;SDS011;7852;52.228;5.990;2023-06-22T02:31:27;175.8;;;52.5;;
15500;SDS011;7852;52.228;5.990;2023-06-22T02:32:27;37.9;;;10.5;;
15500;SDS011;7852;52.228;5.990;2023-06-22T02:33:27;9.7;;;6.7;;
15500;SDS011;7852;52.228;5.990;2023-06-22T02:34:27;9.8;;;7.1;;
15500;SDS011;7852;52.228;5.990;2023-06-22T02:35:28;8.6;;;6.3;;
15500;SDS011;7852;52.228;5.990;2023-06-22T02:36:27;9.5;;;6.3;;
15500;SDS011;7852;52.228;5.990;2023-06-22T02:37:27;10.2;;;7;;
15500;SDS011;7852;52.228;5.990;2023-06-22T02:38:27;12.5;;;8.5;;
15500;SDS011;7852;52.228;5.990;2023-06-22T02:39:27;10.3;;;8;;
15500;SDS011;7852;52.228;5.990;2023-06-22T02:40:28;10.2;;;6.8;;
15500;SDS011;7852;52.228;5.990;2023-06-22T02:41:27;229.4;;;103.8;;
15500;SDS011;7852;52.228;5.990;2023-06-22T02:42:27;115;;;71;;
15500;SDS011;7852;52.228;5.990;2023-06-22T02:43:27;10;;;7.1;;
15500;SDS011;7852;52.228;5.990;2023-06-22T02:44:27;11;;;6.5;;
15500;SDS011;7852;52.228;5.990;2023-06-22T02:45:27;9.2;;;7.7;;
15500;SDS011;7852;52.228;5.990;2023-06-22T02:46:27;17.3;;;15.5;;
15500;SDS011;7852;52.228;5.990;2023-06-22T02:47:27;9.9;;;7.2;;
15500;SDS011;7852;52.228;5.990;2023-06-22T02:48:27;8.7;;;7;;
15500;SDS011;7852;52.228;5.990;2023-06-22T02:49:27;10.8;;;8;;
15500;SDS011;7852;52.228;5.990;2023-06-22T02:50:27;9.1;;;7.3;;
15500;SDS011;7852;52.228;5.990;2023-06-22T02:51:27;10.4;;;8.3;;
15500;SDS011;7852;52.228;5.990;2023-06-22T02:52:27;10.6;;;7.8;;
15500;SDS011;7852;52.228;5.990;2023-06-22T02:53:27;11.3;;;7.3;;
15500;SDS011;7852;52.228;5.990;2023-06-22T02:54:27;10.6;;;8;;
15500;SDS011;7852;52.228;5.990;2023-06-22T02:55:27;11.6;;;8.3;;
15500;SDS011;7852;52.228;5.990;2023-06-22T02:56:28;10.2;;;8.3;;
15500;SDS011;7852;52.228;5.990;2023-06-22T02:57:27;12.9;;;9.6;;
15500;SDS011;7852;52.228;5.990;2023-06-22T02:58:27;11.1;;;8.6;;
15500;SDS011;7852;52.228;5.990;2023-06-22T02:59:27;12.8;;;9;;
15500;SDS011;7852;52.228;5.990;2023-06-22T03:00:27;12.4;;;8.6;;
15500;SDS011;7852;52.228;5.990;2023-06-22T03:01:28;12.3;;;8.9;;
15500;SDS011;7852;52.228;5.990;2023-06-22T03:02:27;11.3;;;9.1;;
15500;SDS011;7852;52.228;5.990;2023-06-22T03:03:27;10.2;;;8.3;;
15500;SDS011;7852;52.228;5.990;2023-06-22T03:04:27;14.8;;;10.1;;
15500;SDS011;7852;52.228;5.990;2023-06-22T03:05:27;13.9;;;9.2;;
15500;SDS011;7852;52.228;5.990;2023-06-22T03:06:27;13.2;;;8.8;;
15500;SDS011;7852;52.228;5.990;2023-06-22T03:07:28;13.5;;;9.5;;
15500;SDS011;7852;52.228;5.990;2023-06-22T03:08:27;12.1;;;8.9;;
15500;SDS011;7852;52.228;5.990;2023-06-22T03:09:28;11;;;8.2;;
15500;SDS011;7852;52.228;5.990;2023-06-22T03:10:27;13.2;;;9.2;;
15500;SDS011;7852;52.228;5.990;2023-06-22T03:11:27;14;;;8.9;;
15500;SDS011;7852;52.228;5.990;2023-06-22T03:12:27;13.8;;;9.9;;
15500;SDS011;7852;52.228;5.990;2023-06-22T03:13:27;11.9;;;9.3;;
15500;SDS011;7852;52.228;5.990;2023-06-22T03:14:27;10.6;;;8.4;;
15500;SDS011;7852;52.228;5.990;2023-06-22T03:15:27;11;;;8.4;;
15500;SDS011;7852;52.228;5.990;2023-06-22T03:16:27;14.1;;;10.1;;
15500;SDS011;7852;52.228;5.990;2023-06-22T03:17:27;13.9;;;9.5;;
15500;SDS011;7852;52.228;5.990;2023-06-22T03:18:27;14.5;;;9.8;;
15500;SDS011;7852;52.228;5.990;2023-06-22T03:19:27;11.1;;;8.2;;
15500;SDS011;7852;52.228;5.990;2023-06-22T03:20:27;11.4;;;7.9;;
15500;SDS011;7852;52.228;5.990;2023-06-22T03:21:28;13.9;;;7.9;;
15500;SDS011;7852;52.228;5.990;2023-06-22T03:22:27;12.8;;;9.5;;
15500;SDS011;7852;52.228;5.990;2023-06-22T03:23:27;13.6;;;8.5;;
15500;SDS011;7852;52.228;5.990;2023-06-22T03:24:27;13.3;;;10;;
15500;SDS011;7852;52.228;5.990;2023-06-22T03:25:27;16.5;;;10.4;;
15500;SDS011;7852;52.228;5.990;2023-06-22T03:26:27;15.6;;;11.6;;
15500;SDS011;7852;52.228;5.990;2023-06-22T03:27:27;16;;;10.6;;
15500;SDS011;7852;52.228;5.990;2023-06-22T03:28:27;14.2;;;10;;
15500;SDS011;7852;52.228;5.990;2023-06-22T03:29:27;15.9;;;10.8;;
15500;SDS011;7852;52.228;5.990;2023-06-22T03:30:27;16.8;;;11.3;;
15500;SDS011;7852;52.228;5.990;2023-06-22T03:31:27;15.7;;;11.5;;
15500;SDS011;7852;52.228;5.990;2023-06-22T03:32:27;13.1;;;9.2;;
15500;SDS011;7852;52.228;5.990;2023-06-22T03:33:27;13.7;;;9.6;;
15500;SDS011;7852;52.228;5.990;2023-06-22T03:34:27;14.2;;;10.3;;
15500;SDS011;7852;52.228;5.990;2023-06-22T03:35:27;10.8;;;8.3;;
15500;SDS011;7852;52.228;5.990;2023-06-22T03:36:27;10.5;;;8.2;;
15500;SDS011;7852;52.228;5.990;2023-06-22T03:37:28;13.1;;;8.5;;
15500;SDS011;7852;52.228;5.990;2023-06-22T03:38:27;14.2;;;10.7;;
15500;SDS011;7852;52.228;5.990;2023-06-22T03:39:27;11.9;;;8.6;;
15500;SDS011;7852;52.228;5.990;2023-06-22T03:40:27;14.6;;;11.1;;
15500;SDS011;7852;52.228;5.990;2023-06-22T03:41:27;16.9;;;11.7;;
15500;SDS011;7852;52.228;5.990;2023-06-22T03:42:27;14.7;;;10.7;;
15500;SDS011;7852;52.228;5.990;2023-06-22T03:43:27;16.3;;;11.6;;
15500;SDS011;7852;52.228;5.990;2023-06-22T03:44:27;14.4;;;10.7;;
15500;SDS011;7852;52.228;5.990;2023-06-22T03:45:27;14.5;;;9.8;;
15500;SDS011;7852;52.228;5.990;2023-06-22T03:46:27;18.2;;;11.3;;
15500;SDS011;7852;52.228;5.990;2023-06-22T03:47:27;18.2;;;12.2;;
15500;SDS011;7852;52.228;5.990;2023-06-22T03:48:27;17.1;;;11.9;;
15500;SDS011;7852;52.228;5.990;2023-06-22T03:49:27;18.1;;;13;;
15500;SDS011;7852;52.228;5.990;2023-06-22T03:50:27;14.2;;;11.8;;
15500;SDS011;7852;52.228;5.990;2023-06-22T03:51:27;13.2;;;11.9;;
15500;SDS011;7852;52.228;5.990;2023-06-22T03:52:27;21.5;;;19.6;;
15500;SDS011;7852;52.228;5.990;2023-06-22T03:53:27;20.6;;;18.9;;
15500;SDS011;7852;52.228;5.990;2023-06-22T03:54:27;30.1;;;27.7;;
15500;SDS011;7852;52.228;5.990;2023-06-22T03:55:27;36.9;;;34.1;;
15500;SDS011;7852;52.228;5.990;2023-06-22T03:56:27;39.8;;;36.8;;
15500;SDS011;7852;52.228;5.990;2023-06-22T03:57:27;41.9;;;39;;
15500;SDS011;7852;52.228;5.990;2023-06-22T03:58:27;46.4;;;43.1;;
15500;SDS011;7852;52.228;5.990;2023-06-22T03:59:27;41.7;;;38.6;;
15500;SDS011;7852;52.228;5.990;2023-06-22T04:00:27;42;;;39.1;;
15500;SDS011;7852;52.228;5.990;2023-06-22T04:01:27;42.6;;;39.7;;
15500;SDS011;7852;52.228;5.990;2023-06-22T04:02:27;38.5;;;35.6;;
15500;SDS011;7852;52.228;5.990;2023-06-22T04:03:27;40;;;36.8;;
15500;SDS011;7852;52.228;5.990;2023-06-22T04:04:27;38.3;;;35.5;;
15500;SDS011;7852;52.228;5.990;2023-06-22T04:05:27;37.8;;;34.8;;
15500;SDS011;7852;52.228;5.990;2023-06-22T04:06:27;38.3;;;35.5;;
15500;SDS011;7852;52.228;5.990;2023-06-22T04:09:27;47.9;;;44.6;;
15500;SDS011;7852;52.228;5.990;2023-06-22T04:12:27;59.9;;;55.8;;
15500;SDS011;7852;52.228;5.990;2023-06-22T04:13:27;51.7;;;48;;
15500;SDS011;7852;52.228;5.990;2023-06-22T04:14:27;60.3;;;56.2;;
15500;SDS011;7852;52.228;5.990;2023-06-22T04:15:27;58.9;;;55;;
15500;SDS011;7852;52.228;5.990;2023-06-22T04:16:27;55.1;;;51.5;;
15500;SDS011;7852;52.228;5.990;2023-06-22T04:17:27;73.5;;;69.3;;
15500;SDS011;7852;52.228;5.990;2023-06-22T04:18:28;69;;;65.2;;
15500;SDS011;7852;52.228;5.990;2023-06-22T04:19:28;62.5;;;58.7;;
15500;SDS011;7852;52.228;5.990;2023-06-22T04:20:28;62.1;;;58.2;;
15500;SDS011;7852;52.228;5.990;2023-06-22T04:21:28;58.3;;;54.3;;
15500;SDS011;7852;52.228;5.990;2023-06-22T04:22:30;54.1;;;50.5;;
15500;SDS011;7852;52.228;5.990;2023-06-22T04:23:28;59.3;;;55.3;;
15500;SDS011;7852;52.228;5.990;2023-06-22T04:24:28;55.1;;;51.5;;
15500;SDS011;7852;52.228;5.990;2023-06-22T04:25:28;68.4;;;64.2;;
15500;SDS011;7852;52.228;5.990;2023-06-22T04:26:29;70.2;;;65.6;;
15500;SDS011;7852;52.228;5.990;2023-06-22T04:27:31;56.4;;;52.6;;
15500;SDS011;7852;52.228;5.990;2023-06-22T04:28:31;48.8;;;45.3;;
15500;SDS011;7852;52.228;5.990;2023-06-22T04:29:31;46.8;;;43.3;;
15500;SDS011;7852;52.228;5.990;2023-06-22T04:32:31;56.3;;;52.2;;
15500;SDS011;7852;52.228;5.990;2023-06-22T04:33:31;54;;;50.2;;
15500;SDS011;7852;52.228;5.990;2023-06-22T04:34:31;61.6;;;58;;
15500;SDS011;7852;52.228;5.990;2023-06-22T04:35:31;67.2;;;63.1;;
15500;SDS011;7852;52.228;5.990;2023-06-22T04:36:31;79;;;74.3;;
15500;SDS011;7852;52.228;5.990;2023-06-22T04:37:31;79.3;;;74.6;;
15500;SDS011;7852;52.228;5.990;2023-06-22T04:38:31;115.7;;;109.8;;
15500;SDS011;7852;52.228;5.990;2023-06-22T04:39:31;121.3;;;114.7;;
15500;SDS011;7852;52.228;5.990;2023-06-22T04:42:55;225.2;;;214.8;;
15500;SDS011;7852;52.228;5.990;2023-06-22T04:43:55;241.1;;;229.9;;
15500;SDS011;7852;52.228;5.990;2023-06-22T04:44:55;239.9;;;228.9;;
15500;SDS011;7852;52.228;5.990;2023-06-22T04:45:55;244.9;;;233.3;;
15500;SDS011;7852;52.228;5.990;2023-06-22T04:47:06;284.5;;;271.3;;
15500;SDS011;7852;52.228;5.990;2023-06-22T04:48:05;346.5;;;330.3;;
15500;SDS011;7852;52.228;5.990;2023-06-22T04:49:00;405.5;;;386;;
15500;SDS011;7852;52.228;5.990;2023-06-22T04:49:58;355.2;;;338.7;;
15500;SDS011;7852;52.228;5.990;2023-06-22T04:51:08;345.2;;;329.4;;
15500;SDS011;7852;52.228;5.990;2023-06-22T04:52:03;416;;;396;;
15500;SDS011;7852;52.228;5.990;2023-06-22T04:53:04;438.8;;;417.5;;
15500;SDS011;7852;52.228;5.990;2023-06-22T04:54:04;439.5;;;418.3;;
15500;SDS011;7852;52.228;5.990;2023-06-22T04:55:05;440.8;;;419.3;;
15500;SDS011;7852;52.228;5.990;2023-06-22T04:56:04;474.6;;;451.5;;
15500;SDS011;7852;52.228;5.990;2023-06-22T04:57:04;538.5;;;511;;
15500;SDS011;7852;52.228;5.990;2023-06-22T04:58:04;544.7;;;517.2;;
15500;SDS011;7852;52.228;5.990;2023-06-22T04:59:05;594;;;562.9;;
15500;SDS011;7852;52.228;5.990;2023-06-22T05:00:26;643.1;;;609;;
15500;SDS011;7852;52.228;5.990;2023-06-22T05:01:26;611.8;;;579.6;;
15500;SDS011;7852;52.228;5.990;2023-06-22T05:02:26;361.5;;;999.9;;
15500;SDS011;7852;52.228;5.990;2023-06-22T05:03:41;624.7;;;591.7;;
15500;SDS011;7852;52.228;5.990;2023-06-22T05:04:42;881.8;;;611.7;;
15500;SDS011;7852;52.228;5.990;2023-06-22T05:05:41;1594.6;;;839.6;;
15500;SDS011;7852;52.228;5.990;2023-06-22T05:06:50;361.5;;;999.9;;
15500;SDS011;7852;52.228;5.990;2023-06-22T05:08:00;361.5;;;999.9;;
15500;SDS011;7852;52.228;5.990;2023-06-22T05:09:24;361.5;;;999.9;;
15500;SDS011;7852;52.228;5.990;2023-06-22T05:10:02;361.5;;;999.9;;
15500;SDS011;7852;52.228;5.990;2023-06-22T05:11:15;1513.1;;;762.5;;
15500;SDS011;7852;52.228;5.990;2023-06-22T05:12:22;361.5;;;999.9;;
15500;SDS011;7852;52.228;5.990;2023-06-22T05:14:36;361.5;;;999.9;;
15500;SDS011;7852;52.228;5.990;2023-06-22T05:15:49;361.5;;;999.9;;
15500;SDS011;7852;52.228;5.990;2023-06-22T05:16:59;361.5;;;999.9;;
15500;SDS011;7852;52.228;5.990;2023-06-22T05:18:09;361.5;;;999.9;;
15500;SDS011;7852;52.228;5.990;2023-06-22T05:19:19;361.5;;;999.9;;
15500;SDS011;7852;52.228;5.990;2023-06-22T05:20:27;361.5;;;999.9;;
15500;SDS011;7852;52.228;5.990;2023-06-22T05:21:27;361.5;;;999.9;;
15500;SDS011;7852;52.228;5.990;2023-06-22T05:22:29;361.5;;;999.9;;
15500;SDS011;7852;52.228;5.990;2023-06-22T05:23:40;361.5;;;999.9;;
15500;SDS011;7852;52.228;5.990;2023-06-22T05:24:40;361.5;;;999.9;;
15500;SDS011;7852;52.228;5.990;2023-06-22T05:25:35;361.5;;;999.9;;
15500;SDS011;7852;52.228;5.990;2023-06-22T05:26:41;361.5;;;999.9;;
15500;SDS011;7852;52.228;5.990;2023-06-22T05:27:37;361.5;;;999.9;;
15500;SDS011;7852;52.228;5.990;2023-06-22T05:28:47;361.5;;;999.9;;
15500;SDS011;7852;52.228;5.990;2023-06-22T05:29:57;361.5;;;999.9;;
15500;SDS011;7852;52.228;5.990;2023-06-22T05:30:46;361.5;;;999.9;;
15500;SDS011;7852;52.228;5.990;2023-06-22T05:32:21;361.5;;;999.9;;
15500;SDS011;7852;52.228;5.990;2023-06-22T05:34:22;361.5;;;999.9;;
15500;SDS011;7852;52.228;5.990;2023-06-22T05:35:28;361.5;;;999.9;;
15500;SDS011;7852;52.228;5.990;2023-06-22T05:36:29;361.5;;;999.9;;
15500;SDS011;7852;52.228;5.990;2023-06-22T05:40:50;361.5;;;999.9;;
15500;SDS011;7852;52.228;5.990;2023-06-22T05:41:58;361.5;;;999.9;;
15500;SDS011;7852;52.228;5.990;2023-06-22T05:43:02;361.5;;;999.9;;
15500;SDS011;7852;52.228;5.990;2023-06-22T05:43:58;361.5;;;999.9;;
15500;SDS011;7852;52.228;5.990;2023-06-22T05:45:12;361.5;;;999.9;;
15500;SDS011;7852;52.228;5.990;2023-06-22T05:46:21;361.5;;;999.9;;
15500;SDS011;7852;52.228;5.990;2023-06-22T05:47:21;361.5;;;999.9;;
15500;SDS011;7852;52.228;5.990;2023-06-22T05:48:21;361.5;;;999.9;;
15500;SDS011;7852;52.228;5.990;2023-06-22T05:49:21;361.5;;;999.9;;
15500;SDS011;7852;52.228;5.990;2023-06-22T05:50:21;361.5;;;999.9;;
15500;SDS011;7852;52.228;5.990;2023-06-22T05:51:21;361.5;;;999.9;;
15500;SDS011;7852;52.228;5.990;2023-06-22T05:52:21;361.5;;;999.9;;
15500;SDS011;7852;52.228;5.990;2023-06-22T05:53:21;361.5;;;999.9;;
15500;SDS011;7852;52.228;5.990;2023-06-22T05:54:21;361.5;;;999.9;;
15500;SDS011;7852;52.228;5.990;2023-06-22T05:55:21;361.5;;;999.9;;
15500;SDS011;7852;52.228;5.990;2023-06-22T05:56:22;361.5;;;999.9;;
15500;SDS011;7852;52.228;5.990;2023-06-22T05:57:22;361.5;;;999.9;;
15500;SDS011;7852;52.228;5.990;2023-06-22T05:58:22;361.5;;;999.9;;
15500;SDS011;7852;52.228;5.990;2023-06-22T05:59:22;361.5;;;999.9;;
15500;SDS011;7852;52.228;5.990;2023-06-22T06:00:22;361.5;;;999.9;;
15500;SDS011;7852;52.228;5.990;2023-06-22T06:01:22;361.5;;;999.9;;
15500;SDS011;7852;52.228;5.990;2023-06-22T06:02:22;361.5;;;999.9;;
15500;SDS011;7852;52.228;5.990;2023-06-22T06:03:22;361.5;;;999.9;;
15500;SDS011;7852;52.228;5.990;2023-06-22T06:04:22;361.5;;;999.9;;
15500;SDS011;7852;52.228;5.990;2023-06-22T06:05:22;361.5;;;999.9;;
15500;SDS011;7852;52.228;5.990;2023-06-22T06:06:22;361.5;;;999.9;;
15500;SDS011;7852;52.228;5.990;2023-06-22T06:07:22;361.5;;;999.9;;
15500;SDS011;7852;52.228;5.990;2023-06-22T06:08:22;361.5;;;999.9;;
15500;SDS011;7852;52.228;5.990;2023-06-22T06:09:22;361.5;;;999.9;;
15500;SDS011;7852;52.228;5.990;2023-06-22T06:10:23;361.5;;;999.9;;
15500;SDS011;7852;52.228;5.990;2023-06-22T06:11:23;361.5;;;999.9;;
15500;SDS011;7852;52.228;5.990;2023-06-22T06:12:22;361.5;;;999.9;;
15500;SDS011;7852;52.228;5.990;2023-06-22T06:13:22;361.5;;;999.9;;
15500;SDS011;7852;52.228;5.990;2023-06-22T06:14:22;361.5;;;999.9;;
15500;SDS011;7852;52.228;5.990;2023-06-22T06:15:22;361.5;;;999.9;;
15500;SDS011;7852;52.228;5.990;2023-06-22T06:16:22;361.5;;;999.9;;
15500;SDS011;7852;52.228;5.990;2023-06-22T06:17:22;361.5;;;999.9;;
15500;SDS011;7852;52.228;5.990;2023-06-22T06:18:23;361.5;;;999.9;;
15500;SDS011;7852;52.228;5.990;2023-06-22T06:19:22;361.5;;;999.9;;
15500;SDS011;7852;52.228;5.990;2023-06-22T06:20:22;361.5;;;999.9;;
15500;SDS011;7852;52.228;5.990;2023-06-22T06:21:22;361.5;;;999.9;;
15500;SDS011;7852;52.228;5.990;2023-06-22T06:22:22;361.5;;;999.9;;
15500;SDS011;7852;52.228;5.990;2023-06-22T06:23:22;361.5;;;999.9;;
15500;SDS011;7852;52.228;5.990;2023-06-22T06:24:22;361.5;;;999.9;;
15500;SDS011;7852;52.228;5.990;2023-06-22T06:25:22;361.5;;;999.9;;
15500;SDS011;7852;52.228;5.990;2023-06-22T06:26:27;361.5;;;999.9;;
15500;SDS011;7852;52.228;5.990;2023-06-22T06:28:27;361.5;;;999.9;;
15500;SDS011;7852;52.228;5.990;2023-06-22T06:29:29;361.5;;;999.9;;
15500;SDS011;7852;52.228;5.990;2023-06-22T06:30:29;361.5;;;999.9;;